Terminal Aerodrome Forecast
Issued by NWS

Home | Current Version | Previous Version | Text Only | Print | Product List | Glossary Off
Versions: 1 2 3 4 5 6 7 8 9 10 11 12 13 14 15 16 17 18 19 20 21 22 23 24 25 26 27

688
FTUS43 KPAH 281721
TAFCGI
TAF
KCGI 281721Z 2818/2918 24015KT P6SM BKN016 BKN150
     FM282000 27015KT P6SM BKN030
     FM282300 32007KT P6SM SCT035
     FM290500 VRB03KT P6SM SKC
     FM290900 00000KT 3SM BR SKC
     FM291300 24003KT P6SM SKC=

USA.gov is the U.S. government's official web portal to all federal, state and local government web resources and services.